Attica, Kansas
Current Conditions -  °F | °C
As of 11:10 PM on Wednesday 22 Oct 2014 (Local Time) from KAVK Reporting Station
Overcast Overcast  
Wind Chill: 61°   Ceiling: 7500
Heat Index: 61°   Visibility: 10mi
Dew Point: 57°   Wind: 12mph
Humidity: 88%   Direction: 190°S
Pressure: 30.1"   Gusts: NA
Location:  37.24°N, 98.23°W
Report Text: KAVK 230410Z AUTO 19010KT 10SM FEW032 OVC075 16/14 A3010 RMK AO2
Loading
Personal Weather Stations






























Interactive Weather Map
Tropical Storm Tracking
New forecast layout! Learn more

10-Day Weather Forecast

Advertisements
Track Severe Weather on mobile